Bookmark and Share
Track history (hours):
 

MV Scf Alpine

Last reported at 2014-Apr-14 22:34 UTC. Time now 2014-Apr-16 10:36 UTC.
Position N 43°24' E 004°54'.

Length 229 m; draft 13.4 m.

Type: Tanker. MMSI: 636014957.

NotesDate/timePositionNaut miles runAvg speedWind from/ knotsBaromVisibWave heightAir tempDewpointWater temp
2014-Apr-14 22:34N 43°24' E 004°54'6 5.6
2014-Apr-14 21:34N 43°20' E 004°59'8 8.0
2014-Apr-14 20:34N 43°13' E 005°02'1212.2
2014-Apr-14 19:34N 43°02' E 004°55'1312.8
2014-Apr-14 18:34N 42°51' E 004°46'1212.5
2014-Apr-14 17:34N 42°40' E 004°38'1312.9
2014-Apr-14 16:34N 42°29' E 004°29'1413.4
2014-Apr-14 15:32N 42°17' E 004°20'1313.1
2014-Apr-14 14:33N 42°05' E 004°12'1313.1
2014-Apr-14 13:33N 41°54' E 004°03'2613.1
2014-Apr-14 11:33N 41°33' E 003°42'1312.8
2014-Apr-14 10:33N 41°23' E 003°31'1212.4
2014-Apr-14 09:33N 41°14' E 003°20'1313.1
2014-Apr-14 08:33N 41°05' E 003°08'2613.0
2014-Apr-14 06:33N 40°46' E 002°44'1413.8
2014-Apr-14 05:33N 40°36' E 002°32'10314.7
2014-Apr-13 22:33N 39°20' E 001°01'1313.0
2014-Apr-13 21:33N 39°11' E 000°50'2712.8
2014-Apr-13 19:27N 38°45' E 000°40'2612.9
2014-Apr-13 17:28N 38°20' E 000°32'1312.7
2014-Apr-13 16:26N 38°08' E 000°27'2813.2
2014-Apr-13 14:21N 37°41' E 000°19'2412.9
2014-Apr-13 12:32N 37°26' W 000°04'25812.3
2014-Apr-12 15:31N 35°60' W 005°08'1414.7
2014-Apr-12 14:33N 35°58' W 005°25'1413.9
2014-Apr-12 13:33N 35°54' W 005°42'1514.4
2014-Apr-12 12:33N 35°53' W 005°60'4314.1
2014-Apr-12 09:31N 35°51' W 006°52'2713.8
2014-Apr-12 07:33N 35°49' W 007°25'1414.0
2014-Apr-12 06:33N 35°48' W 007°43'4214.1
2014-Apr-12 03:33N 35°44' W 008°35'2114.5
2014-Apr-12 02:06N 35°43' W 009°01'814.7
2014-Apr-12 01:33N 35°42' W 009°11'1714.5
2014-Apr-12 00:20N 35°40' W 009°32'  

Dump ship's entire track history

sailing weather and tide predictions

MV Scf Alpine — A8XQ2 — position and weather